createdAt,value
2019-02-24T00:01:30.098Z,4.77
2019-02-24T00:04:00.476Z,5.37
2019-02-24T00:06:30.980Z,4.87
2019-02-24T00:09:01.457Z,4.80
2019-02-24T00:11:31.940Z,4.57
2019-02-24T00:14:02.422Z,4.53
2019-02-24T00:16:32.881Z,4.80
2019-02-24T00:19:03.829Z,4.73
2019-02-24T00:21:34.299Z,3.90
2019-02-24T00:24:04.710Z,4.83
2019-02-24T00:26:35.181Z,4.93
2019-02-24T00:29:05.569Z,4.80
2019-02-24T00:31:35.999Z,4.57
2019-02-24T00:34:06.471Z,5.13
2019-02-24T00:36:36.936Z,4.63
2019-02-24T00:39:08.089Z,4.77
2019-02-24T00:41:38.545Z,4.67
2019-02-24T00:44:09.094Z,5.23
2019-02-24T00:46:41.482Z,3.97
2019-02-24T00:49:12.006Z,3.97
2019-02-24T00:51:42.662Z,5.03
2019-02-24T00:54:13.143Z,4.33
2019-02-24T00:56:43.650Z,4.63
2019-02-24T00:59:14.108Z,4.70
2019-02-24T01:01:44.635Z,4.17
2019-02-24T01:04:15.092Z,3.90
2019-02-24T01:06:45.506Z,4.30
2019-02-24T01:09:16.014Z,4.27
2019-02-24T01:11:46.612Z,4.93
2019-02-24T01:14:17.227Z,5.10
2019-02-24T01:16:47.698Z,4.33
2019-02-24T01:19:18.112Z,5.57
2019-02-24T01:21:48.529Z,5.13
2019-02-24T01:24:18.967Z,4.60
2019-02-24T01:26:49.456Z,4.27
2019-02-24T01:29:19.886Z,4.57
2019-02-24T01:31:50.324Z,4.70
2019-02-24T01:34:20.805Z,5.00
2019-02-24T01:36:51.238Z,4.53
2019-02-24T01:39:21.652Z,4.00
2019-02-24T01:41:52.124Z,4.43
2019-02-24T01:44:22.527Z,3.87
2019-02-24T01:46:52.955Z,3.70
2019-02-24T01:49:23.374Z,4.43
2019-02-24T01:51:54.004Z,3.93
2019-02-24T01:54:24.462Z,3.90
2019-02-24T01:56:54.844Z,4.20
2019-02-24T01:59:25.273Z,5.70
2019-02-24T02:01:57.696Z,4.10
2019-02-24T02:04:28.103Z,4.20
2019-02-24T02:06:58.574Z,4.07
2019-02-24T02:09:29.023Z,3.57
2019-02-24T02:11:59.427Z,3.77
2019-02-24T02:14:29.868Z,4.33
2019-02-24T02:17:00.326Z,4.13
2019-02-24T02:19:30.745Z,3.40
2019-02-24T02:22:01.181Z,4.07
2019-02-24T02:24:31.607Z,3.90
2019-02-24T02:27:02.042Z,3.93
2019-02-24T02:29:32.468Z,4.80
2019-02-24T02:32:02.904Z,3.97
2019-02-24T02:34:33.347Z,4.10
2019-02-24T02:37:03.850Z,4.10
2019-02-24T02:39:34.276Z,3.63
2019-02-24T02:42:04.693Z,3.70
2019-02-24T02:44:35.104Z,2.90
2019-02-24T02:47:05.522Z,3.50
2019-02-24T02:49:35.941Z,3.60
2019-02-24T02:52:06.355Z,4.10
2019-02-24T02:54:36.759Z,4.83
2019-02-24T02:57:07.359Z,3.43
2019-02-24T02:59:37.752Z,3.80
2019-02-24T03:02:08.488Z,4.20
2019-02-24T03:04:38.892Z,4.10
2019-02-24T03:07:34.025Z,3.73
2019-02-24T03:10:04.683Z,3.80
2019-02-24T03:12:35.321Z,3.90
2019-02-24T03:15:06.157Z,4.00
2019-02-24T03:17:36.564Z,3.47
2019-02-24T03:20:07.164Z,3.60
2019-02-24T03:22:37.567Z,3.73
2019-02-24T03:25:08.064Z,3.37
2019-02-24T03:27:38.511Z,4.10
2019-02-24T03:30:09.265Z,3.10
2019-02-24T03:32:39.682Z,3.80
2019-02-24T03:35:10.083Z,4.30
2019-02-24T03:37:40.515Z,3.80
2019-02-24T03:40:11.141Z,3.60
2019-02-24T03:42:41.561Z,3.20
2019-02-24T03:45:11.997Z,3.77
2019-02-24T03:47:42.401Z,3.33
2019-02-24T03:50:12.802Z,4.00
2019-02-24T03:52:43.201Z,3.37
2019-02-24T03:55:13.627Z,4.23
2019-02-24T03:57:44.072Z,4.07
2019-02-24T04:00:14.494Z,3.43
2019-02-24T04:02:44.920Z,3.07
2019-02-24T04:05:15.405Z,3.50
2019-02-24T04:07:45.832Z,3.57
2019-02-24T04:10:16.236Z,4.03
2019-02-24T04:12:46.661Z,3.90
2019-02-24T04:15:17.209Z,3.70
2019-02-24T04:17:47.656Z,3.33
2019-02-24T04:20:18.988Z,3.73
2019-02-24T04:22:49.380Z,4.20
2019-02-24T04:25:19.806Z,3.50
2019-02-24T04:27:50.259Z,3.63
2019-02-24T04:30:20.658Z,3.50
2019-02-24T04:32:51.074Z,3.60
2019-02-24T04:35:21.501Z,3.63
2019-02-24T04:37:52.072Z,4.20
2019-02-24T04:40:22.495Z,3.80
2019-02-24T04:42:52.938Z,4.10
2019-02-24T04:45:23.468Z,3.50
2019-02-24T04:47:53.897Z,3.80
2019-02-24T04:50:24.303Z,2.90
2019-02-24T04:52:54.831Z,4.33
2019-02-24T04:55:25.254Z,3.20
2019-02-24T04:57:55.675Z,3.50
2019-02-24T05:00:26.134Z,3.00
2019-02-24T05:02:56.747Z,3.10
2019-02-24T05:05:27.538Z,3.93
2019-02-24T05:07:58.116Z,3.30
2019-02-24T05:10:28.508Z,3.60
2019-02-24T05:12:58.950Z,3.20
2019-02-24T05:15:29.446Z,3.73
2019-02-24T05:17:59.849Z,3.57
2019-02-24T05:20:30.292Z,3.60
2019-02-24T05:23:00.727Z,3.57
2019-02-24T05:25:31.179Z,3.63
2019-02-24T05:28:01.634Z,3.10
2019-02-24T05:30:32.031Z,2.90
2019-02-24T05:33:02.446Z,3.30
2019-02-24T05:35:32.891Z,3.10
2019-02-24T05:38:03.453Z,3.03
2019-02-24T05:40:33.906Z,2.77
2019-02-24T05:43:04.333Z,3.50
2019-02-24T05:45:34.742Z,3.33
2019-02-24T05:48:05.159Z,3.30
2019-02-24T05:50:35.572Z,3.57
2019-02-24T05:53:06.494Z,3.07
2019-02-24T05:55:37.113Z,3.53
2019-02-24T05:58:07.554Z,2.47
2019-02-24T06:00:37.981Z,3.20
2019-02-24T06:03:08.482Z,3.30
2019-02-24T06:05:38.926Z,3.23
2019-02-24T06:08:09.342Z,3.40
2019-02-24T06:10:39.786Z,3.27
2019-02-24T06:13:10.213Z,3.03
2019-02-24T06:15:40.648Z,2.83
2019-02-24T06:18:11.109Z,2.60
2019-02-24T06:20:41.573Z,3.43
2019-02-24T06:23:12.001Z,3.40
2019-02-24T06:25:42.439Z,3.00
2019-02-24T06:28:14.731Z,3.00
2019-02-24T06:30:45.180Z,3.77
2019-02-24T06:33:17.463Z,2.93
2019-02-24T06:35:47.908Z,2.80
2019-02-24T06:38:18.354Z,3.03
2019-02-24T06:40:48.782Z,3.37
2019-02-24T06:43:19.203Z,2.63
2019-02-24T06:45:49.627Z,3.73
2019-02-24T06:48:20.124Z,3.87
2019-02-24T06:50:54.575Z,3.50
2019-02-24T06:53:25.027Z,3.13
2019-02-24T06:55:55.450Z,3.17
2019-02-24T06:58:25.872Z,2.67
2019-02-24T07:00:56.469Z,2.90
2019-02-24T07:03:27.187Z,3.70
2019-02-24T07:05:57.628Z,2.77
2019-02-24T07:08:28.073Z,2.60
2019-02-24T07:10:58.512Z,3.70
2019-02-24T07:13:28.958Z,4.03
2019-02-24T07:15:59.480Z,3.07
2019-02-24T07:18:30.060Z,2.67
2019-02-24T07:21:00.952Z,3.73
2019-02-24T07:23:31.389Z,2.87
2019-02-24T07:26:01.814Z,3.20
2019-02-24T07:28:32.483Z,3.03
2019-02-24T07:31:02.947Z,2.93
2019-02-24T07:33:33.398Z,2.40
2019-02-24T07:36:03.838Z,2.47
2019-02-24T07:38:34.329Z,2.80
2019-02-24T07:41:04.804Z,2.87
2019-02-24T07:43:35.256Z,3.10
2019-02-24T07:46:05.885Z,3.33
2019-02-24T07:48:36.722Z,3.10
2019-02-24T07:51:07.567Z,3.27
2019-02-24T07:53:37.999Z,3.07
2019-02-24T07:56:08.427Z,3.97
2019-02-24T07:58:38.887Z,3.37
2019-02-24T08:01:09.336Z,3.40
2019-02-24T08:03:39.810Z,4.10
2019-02-24T08:06:10.237Z,2.97
2019-02-24T08:08:40.687Z,3.97
2019-02-24T08:11:11.501Z,3.60
2019-02-24T08:13:41.969Z,3.50
2019-02-24T08:16:12.460Z,4.30
2019-02-24T08:18:49.198Z,4.13
2019-02-24T08:21:15.208Z,3.50
2019-02-24T08:23:45.883Z,3.83
2019-02-24T08:26:16.608Z,3.70
2019-02-24T08:28:47.054Z,3.37
2019-02-24T08:31:17.700Z,4.10
2019-02-24T08:33:48.196Z,3.70
2019-02-24T08:36:18.747Z,4.10
2019-02-24T08:38:49.250Z,3.90
2019-02-24T08:41:19.733Z,3.73
2019-02-24T08:43:50.212Z,3.33
2019-02-24T08:46:20.804Z,3.83
2019-02-24T08:48:51.281Z,3.93
2019-02-24T08:51:23.316Z,3.50
2019-02-24T08:53:54.029Z,3.73
2019-02-24T08:56:24.487Z,3.67
2019-02-24T08:58:54.923Z,3.50
2019-02-24T09:01:26.428Z,3.33
2019-02-24T09:03:56.890Z,3.27
2019-02-24T09:06:27.399Z,4.10
2019-02-24T09:08:58.071Z,2.90
2019-02-24T09:11:28.657Z,3.57
2019-02-24T09:13:59.085Z,4.13
2019-02-24T09:16:29.536Z,3.50
2019-02-24T09:18:59.972Z,3.00
2019-02-24T09:21:30.815Z,3.23
2019-02-24T09:24:01.248Z,3.80
2019-02-24T09:26:31.722Z,3.17
2019-02-24T09:29:02.402Z,4.10
2019-02-24T09:31:32.911Z,3.73
2019-02-24T09:34:03.369Z,3.83
2019-02-24T09:36:33.773Z,3.33
2019-02-24T09:39:04.897Z,3.37
2019-02-24T09:41:35.347Z,3.23
2019-02-24T09:44:06.016Z,3.37
2019-02-24T09:46:36.531Z,3.40
2019-02-24T09:49:08.989Z,3.80
2019-02-24T09:51:39.535Z,3.33
2019-02-24T09:54:09.959Z,3.47
2019-02-24T09:56:40.408Z,3.73
2019-02-24T09:59:10.925Z,3.00
2019-02-24T10:01:41.403Z,3.30
2019-02-24T10:04:11.853Z,3.40
2019-02-24T10:06:42.210Z,3.17
2019-02-24T10:09:12.743Z,3.73
2019-02-24T10:11:43.238Z,3.33
2019-02-24T10:14:13.685Z,3.70
2019-02-24T10:16:44.223Z,3.70
2019-02-24T10:19:14.529Z,3.50
2019-02-24T10:21:45.102Z,3.20
2019-02-24T10:24:15.565Z,3.90
2019-02-24T10:26:46.048Z,3.20
2019-02-24T10:29:16.484Z,3.20
2019-02-24T10:31:46.971Z,3.23
2019-02-24T10:34:17.409Z,3.47
2019-02-24T10:36:47.903Z,3.73
2019-02-24T10:39:18.436Z,3.67
2019-02-24T10:41:48.876Z,2.97
2019-02-24T10:44:19.394Z,2.80
2019-02-24T10:46:49.992Z,3.00
2019-02-24T10:49:20.437Z,3.13
2019-02-24T10:51:50.699Z,3.50
2019-02-24T10:54:21.181Z,4.20
2019-02-24T10:56:51.643Z,3.57
2019-02-24T10:59:22.047Z,3.63
2019-02-24T11:01:52.502Z,3.97
2019-02-24T11:04:23.073Z,4.53
2019-02-24T11:06:53.550Z,4.23
2019-02-24T11:09:24.041Z,3.90
2019-02-24T11:11:54.449Z,4.30
2019-02-24T11:14:24.920Z,4.37
2019-02-24T11:16:55.434Z,4.07
2019-02-24T11:19:25.899Z,4.00
2019-02-24T11:21:56.339Z,4.33
2019-02-24T11:24:26.818Z,3.60
2019-02-24T11:26:57.271Z,4.10
2019-02-24T11:29:27.841Z,4.00
2019-02-24T11:31:58.322Z,3.60
2019-02-24T11:34:28.750Z,3.43
2019-02-24T11:36:59.230Z,3.97
2019-02-24T11:39:29.932Z,4.03
2019-02-24T11:42:00.484Z,4.60
2019-02-24T11:44:31.090Z,3.53
2019-02-24T11:47:01.630Z,4.50
2019-02-24T11:49:32.134Z,3.50
2019-02-24T11:52:04.069Z,4.07
2019-02-24T11:54:34.668Z,4.30
2019-02-24T11:57:05.119Z,3.83
2019-02-24T11:59:35.573Z,4.37
2019-02-24T12:02:06.052Z,4.27
2019-02-24T12:04:36.504Z,3.47
2019-02-24T12:07:06.943Z,4.10
2019-02-24T12:09:37.428Z,4.10
2019-02-24T12:12:07.909Z,3.83
2019-02-24T12:14:38.358Z,4.43
2019-02-24T12:17:08.804Z,3.90
2019-02-24T12:19:39.264Z,4.73
2019-02-24T12:22:09.715Z,4.23
2019-02-24T12:24:40.176Z,4.40
2019-02-24T12:27:10.614Z,4.70
2019-02-24T12:29:41.100Z,4.00
2019-02-24T12:32:11.569Z,3.43
2019-02-24T12:34:42.165Z,4.03
2019-02-24T12:37:12.807Z,4.20
2019-02-24T12:39:43.438Z,4.43
2019-02-24T12:42:13.895Z,3.57
2019-02-24T12:44:44.458Z,4.50
2019-02-24T12:47:14.902Z,4.03
2019-02-24T12:49:45.373Z,3.90
2019-02-24T12:52:15.859Z,3.43
2019-02-24T12:54:46.409Z,3.60
2019-02-24T12:57:16.850Z,4.27
2019-02-24T12:59:47.312Z,3.70
2019-02-24T13:02:17.970Z,3.53
2019-02-24T13:04:48.435Z,4.23
2019-02-24T13:07:18.838Z,3.77
2019-02-24T13:09:49.285Z,3.67
2019-02-24T13:12:19.759Z,3.73
2019-02-24T13:14:50.226Z,3.70
2019-02-24T13:17:20.651Z,4.57
2019-02-24T13:19:51.070Z,4.00
2019-02-24T13:22:21.526Z,3.83
2019-02-24T13:24:52.341Z,2.97
2019-02-24T13:27:22.822Z,3.30
2019-02-24T13:29:53.297Z,3.13
2019-02-24T13:32:23.743Z,3.00
2019-02-24T13:34:54.266Z,3.80
2019-02-24T13:37:24.843Z,3.00
2019-02-24T13:39:55.318Z,2.80
2019-02-24T13:42:25.813Z,2.70
2019-02-24T13:44:56.269Z,2.67
2019-02-24T13:47:26.973Z,3.60
2019-02-24T13:49:57.505Z,3.20
2019-02-24T13:52:28.160Z,3.53
2019-02-24T13:54:58.616Z,3.20
2019-02-24T13:57:29.371Z,3.50
2019-02-24T13:59:59.849Z,3.50
2019-02-24T14:02:46.418Z,3.20
2019-02-24T14:05:16.853Z,4.23
2019-02-24T14:07:47.350Z,3.87
2019-02-24T14:10:18.019Z,2.93
2019-02-24T14:12:48.504Z,4.27
2019-02-24T14:15:19.245Z,4.50
2019-02-24T14:17:49.795Z,3.90
2019-02-24T14:20:20.675Z,3.30
2019-02-24T14:22:51.225Z,3.97
2019-02-24T14:25:22.180Z,3.10
2019-02-24T14:27:52.677Z,3.00
2019-02-24T14:30:23.645Z,3.10
2019-02-24T14:32:54.253Z,2.83
2019-02-24T14:35:24.941Z,3.80
2019-02-24T14:37:55.538Z,3.73
2019-02-24T14:40:26.202Z,2.70
2019-02-24T14:42:56.887Z,3.20
2019-02-24T14:45:27.500Z,3.90
2019-02-24T14:47:58.120Z,3.10
2019-02-24T14:50:28.644Z,3.13
2019-02-24T14:53:00.167Z,3.30
2019-02-24T14:55:30.857Z,3.00
2019-02-24T14:58:01.302Z,2.57
2019-02-24T15:00:31.781Z,4.03
2019-02-24T15:03:02.528Z,3.90
2019-02-24T15:05:33.131Z,4.97
2019-02-24T15:08:03.558Z,5.03
2019-02-24T15:10:34.159Z,3.90
2019-02-24T15:13:04.794Z,4.23
2019-02-24T15:15:35.399Z,4.63
2019-02-24T15:18:06.162Z,4.00
2019-02-24T15:20:36.610Z,4.00
2019-02-24T15:23:07.171Z,3.70
2019-02-24T15:25:37.652Z,4.63
2019-02-24T15:28:08.122Z,3.50
2019-02-24T15:30:38.789Z,3.70
2019-02-24T15:33:09.237Z,2.67
2019-02-24T15:35:39.663Z,3.43
2019-02-24T15:38:10.120Z,3.50
2019-02-24T15:40:40.586Z,3.20
2019-02-24T15:43:11.048Z,3.57
2019-02-24T15:45:41.499Z,3.77
2019-02-24T15:48:12.272Z,3.43
2019-02-24T15:50:42.759Z,3.30
2019-02-24T15:53:13.412Z,3.73
2019-02-24T15:55:43.867Z,3.37
2019-02-24T15:58:14.340Z,4.30
2019-02-24T16:00:44.794Z,3.70
2019-02-24T16:03:15.326Z,3.50
2019-02-24T16:05:45.834Z,4.60
2019-02-24T16:08:16.286Z,3.80
2019-02-24T16:10:46.758Z,3.73
2019-02-24T16:13:17.378Z,3.50
2019-02-24T16:15:47.997Z,4.07
2019-02-24T16:18:18.383Z,3.63
2019-02-24T16:20:48.869Z,6.83
2019-02-24T16:23:19.348Z,4.30
2019-02-24T16:25:49.832Z,3.80
2019-02-24T16:28:20.376Z,2.57
2019-02-24T16:30:50.859Z,3.13
2019-02-24T16:33:21.303Z,3.60
2019-02-24T16:35:51.752Z,3.80
2019-02-24T16:38:22.404Z,3.17
2019-02-24T16:40:52.906Z,4.60
2019-02-24T16:43:23.694Z,4.50
2019-02-24T16:45:54.159Z,3.40
2019-02-24T16:48:24.637Z,3.47
2019-02-24T16:50:55.071Z,3.97
2019-02-24T16:53:25.528Z,3.70
2019-02-24T16:55:56.266Z,3.20
2019-02-24T16:58:26.715Z,3.50
2019-02-24T17:00:57.226Z,4.40
2019-02-24T17:03:27.723Z,3.40
2019-02-24T17:05:58.152Z,3.20
2019-02-24T17:08:28.644Z,2.63
2019-02-24T17:11:07.139Z,2.97
2019-02-24T17:13:31.299Z,2.90
2019-02-24T17:16:01.775Z,2.70
2019-02-24T17:18:32.249Z,3.70
2019-02-24T17:21:02.681Z,2.90
2019-02-24T17:23:33.209Z,2.60
2019-02-24T17:26:03.690Z,3.23
2019-02-24T17:28:34.156Z,3.13
2019-02-24T17:31:06.873Z,3.07
2019-02-24T17:33:37.066Z,2.93
2019-02-24T17:36:07.724Z,3.37
2019-02-24T17:38:38.488Z,3.00
2019-02-24T17:41:09.010Z,4.13
2019-02-24T17:43:39.566Z,3.37
2019-02-24T17:46:10.057Z,3.23
2019-02-24T17:48:40.707Z,3.37
2019-02-24T17:51:20.608Z,3.17
2019-02-24T17:53:43.538Z,3.47
2019-02-24T17:56:14.263Z,2.63
2019-02-24T17:58:44.824Z,2.77
2019-02-24T18:01:15.403Z,2.73
2019-02-24T18:03:46.019Z,2.30
2019-02-24T18:06:16.583Z,3.13
2019-02-24T18:08:47.495Z,3.50
2019-02-24T18:11:18.033Z,2.47
2019-02-24T18:13:48.626Z,2.47
2019-02-24T18:16:19.365Z,2.73
2019-02-24T18:18:50.058Z,3.20
2019-02-24T18:21:20.704Z,2.60
2019-02-24T18:23:51.232Z,2.60
2019-02-24T18:26:21.797Z,2.70
2019-02-24T18:28:52.590Z,2.97
2019-02-24T18:31:23.083Z,3.00
2019-02-24T18:33:53.789Z,4.20
2019-02-24T18:36:24.451Z,3.20
2019-02-24T18:38:55.007Z,3.30
2019-02-24T18:41:25.573Z,3.40
2019-02-24T18:43:56.425Z,3.07
2019-02-24T18:46:26.927Z,3.17
2019-02-24T18:48:57.464Z,2.80
2019-02-24T18:51:28.283Z,3.10
2019-02-24T18:53:59.512Z,2.83
2019-02-24T18:56:30.080Z,2.90
2019-02-24T18:59:00.620Z,3.07
2019-02-24T19:01:31.129Z,2.70
2019-02-24T19:04:01.841Z,2.70
2019-02-24T19:06:38.928Z,2.47
2019-02-24T19:09:05.200Z,2.37
2019-02-24T19:11:35.816Z,2.27
2019-02-24T19:14:06.393Z,2.13
2019-02-24T19:16:37.029Z,2.13
2019-02-24T19:19:07.620Z,2.40
2019-02-24T19:21:38.177Z,3.52
2019-02-24T19:24:08.881Z,3.67
2019-02-24T19:26:39.747Z,4.13
2019-02-24T19:29:11.127Z,3.83
2019-02-24T19:31:41.771Z,3.57
2019-02-24T19:34:12.774Z,2.90
2019-02-24T19:36:43.509Z,2.93
2019-02-24T19:39:16.383Z,3.03
2019-02-24T19:41:47.209Z,2.47
2019-02-24T19:44:17.993Z,3.40
2019-02-24T19:46:48.622Z,3.60
2019-02-24T19:49:19.346Z,2.90
2019-02-24T19:51:49.942Z,3.40
2019-02-24T19:54:20.694Z,2.63
2019-02-24T19:56:51.188Z,3.30
2019-02-24T19:59:21.842Z,1.93
2019-02-24T20:01:52.448Z,5.27
2019-02-24T20:04:23.107Z,1.90
2019-02-24T20:06:53.824Z,1.87
2019-02-24T20:09:24.384Z,1.80
2019-02-24T20:11:55.502Z,1.50
2019-02-24T20:14:26.090Z,1.23
2019-02-24T20:16:56.664Z,1.70
2019-02-24T20:19:27.511Z,1.30
2019-02-24T20:21:58.274Z,1.30
2019-02-24T20:24:33.125Z,1.27
2019-02-24T20:27:01.722Z,1.50
2019-02-24T20:29:32.239Z,1.53
2019-02-24T20:32:02.815Z,1.20
2019-02-24T20:34:33.382Z,1.43
2019-02-24T20:37:03.946Z,1.83
2019-02-24T20:39:34.609Z,1.23
2019-02-24T20:42:05.220Z,1.70
2019-02-24T20:44:35.790Z,1.70
2019-02-24T20:47:06.361Z,1.83
2019-02-24T20:49:36.934Z,2.10
2019-02-24T20:52:07.402Z,2.20
2019-02-24T20:54:38.076Z,1.60
2019-02-24T20:57:08.741Z,1.23
2019-02-24T20:59:39.368Z,1.60
2019-02-24T21:02:09.983Z,1.50
2019-02-24T21:04:40.592Z,1.80
2019-02-24T21:07:11.151Z,1.37
2019-02-24T21:09:43.221Z,1.97
2019-02-24T21:12:13.889Z,1.57
2019-02-24T21:14:44.614Z,1.47
2019-02-24T21:17:15.067Z,1.50
2019-02-24T21:19:45.582Z,1.70
2019-02-24T21:22:16.065Z,2.20
2019-02-24T21:24:46.637Z,1.60
2019-02-24T21:27:17.175Z,2.23
2019-02-24T21:29:47.699Z,2.20
2019-02-24T21:32:18.611Z,2.10
2019-02-24T21:34:49.312Z,2.23
2019-02-24T21:37:19.975Z,2.00
2019-02-24T21:39:50.616Z,1.80
2019-02-24T21:42:21.152Z,1.97
2019-02-24T21:44:51.790Z,1.60
2019-02-24T21:47:22.565Z,2.60
2019-02-24T21:49:53.274Z,2.00
2019-02-24T21:52:24.082Z,1.70
2019-02-24T21:54:54.600Z,2.10
2019-02-24T21:57:25.154Z,2.07
2019-02-24T21:59:55.677Z,1.80
2019-02-24T22:02:26.124Z,2.00
2019-02-24T22:04:56.787Z,2.10
2019-02-24T22:07:28.328Z,1.57
2019-02-24T22:09:58.890Z,1.90
2019-02-24T22:12:29.381Z,1.60
2019-02-24T22:14:59.930Z,1.60
2019-02-24T22:17:30.378Z,2.30
2019-02-24T22:20:01.168Z,2.17
2019-02-24T22:22:31.655Z,2.00
2019-02-24T22:25:02.170Z,2.00
2019-02-24T22:27:32.711Z,2.13
2019-02-24T22:30:03.223Z,2.00
2019-02-24T22:32:33.746Z,2.17
2019-02-24T22:35:05.927Z,2.37
2019-02-24T22:37:36.394Z,2.10
2019-02-24T22:40:10.153Z,2.40
2019-02-24T22:42:40.613Z,2.70
2019-02-24T22:45:13.823Z,2.40
2019-02-24T22:47:45.246Z,1.90
2019-02-24T22:50:15.985Z,2.50
2019-02-24T22:52:46.717Z,2.17
2019-02-24T22:55:17.561Z,2.27
2019-02-24T22:57:48.056Z,2.23
2019-02-24T23:01:09.942Z,2.40
2019-02-24T23:03:45.803Z,2.80
2019-02-24T23:06:16.247Z,1.97
2019-02-24T23:08:46.813Z,2.40
2019-02-24T23:11:17.853Z,2.50
2019-02-24T23:13:48.341Z,2.30
2019-02-24T23:16:18.821Z,2.53
2019-02-24T23:18:49.760Z,2.83
2019-02-24T23:21:20.254Z,2.70
2019-02-24T23:23:50.781Z,2.60
2019-02-24T23:26:21.436Z,2.30
2019-02-24T23:28:52.001Z,1.80
2019-02-24T23:31:22.469Z,2.17
2019-02-24T23:33:52.962Z,1.93
2019-02-24T23:36:23.432Z,2.70
2019-02-24T23:38:53.891Z,2.27
2019-02-24T23:41:24.654Z,2.37
2019-02-24T23:43:55.102Z,1.73
2019-02-24T23:46:25.543Z,2.43
2019-02-24T23:48:56.050Z,2.60
2019-02-24T23:51:26.631Z,2.43
2019-02-24T23:53:57.067Z,2.27
2019-02-24T23:56:27.559Z,2.33
2019-02-24T23:58:58.024Z,2.60
